Time;durP1;ratioP1;P1;durP2;ratioP2;P2;SDS_P1;SDS_P2;PMS_P1;PMS_P2;Temp;Humidity;BMP_temperature;BMP_pressure;BME280_temperature;BME280_humidity;BME280_pressure;Samples;Min_cycle;Max_cycle;Signal;HPM_P1;HPM_P2
2020/12/09 00:00:50;;;;;;;26.70;14.88;;;;;;;-0.10;97.06;99934.94;6132686;23;20334;-73
2020/12/09 00:03:16;;;;;;;23.30;14.27;;;;;;;-0.12;97.01;99943.34;6132097;23;20049;-72
2020/12/09 00:05:42;;;;;;;22.65;14.02;;;;;;;-0.11;97.06;99949.63;6154901;23;20005;-72
2020/12/09 00:08:08;;;;;;;26.33;15.38;;;;;;;-0.12;97.10;99943.34;6132364;23;20102;-72
2020/12/09 00:10:34;;;;;;;25.13;15.23;;;;;;;-0.12;97.17;99953.44;6130216;23;20081;-73
2020/12/09 00:12:59;;;;;;;23.40;14.43;;;;;;;-0.13;97.21;99949.88;6105816;23;20014;-73
2020/12/09 00:15:25;;;;;;;25.58;14.40;;;;;;;-0.13;97.26;99958.06;6130776;23;20010;-73
2020/12/09 00:17:50;;;;;;;22.52;13.82;;;;;;;-0.12;97.30;99956.16;6132343;23;20002;-72
2020/12/09 00:20:16;;;;;;;21.08;13.10;;;;;;;-0.11;97.16;99955.06;6105644;23;20494;-72
2020/12/09 00:22:41;;;;;;;22.75;14.13;;;;;;;-0.11;97.35;99960.53;6154891;23;20498;-72
2020/12/09 00:25:07;;;;;;;21.63;12.73;;;;;;;-0.10;97.04;99959.50;6136010;23;20084;-73
2020/12/09 00:27:34;;;;;;;21.95;13.50;;;;;;;-0.09;97.45;99959.25;6164731;23;20072;-73
2020/12/09 00:30:01;;;;;;;22.05;13.10;;;;;;;-0.07;97.48;99962.56;6190310;23;20047;-72
2020/12/09 00:32:28;;;;;;;23.70;13.25;;;;;;;-0.04;97.58;99970.28;6164898;23;20036;-73
2020/12/09 00:34:54;;;;;;;19.23;12.25;;;;;;;-0.03;97.42;99966.50;6190727;23;20496;-73
2020/12/09 00:37:19;;;;;;;18.95;12.15;;;;;;;0.00;97.30;99962.47;6164458;23;20017;-73
2020/12/09 00:39:45;;;;;;;16.38;12.32;;;;;;;0.01;97.59;99958.66;6164860;23;20012;-73
2020/12/09 00:42:10;;;;;;;20.60;12.02;;;;;;;0.03;97.81;99972.06;6164770;23;20016;-73
2020/12/09 00:44:36;;;;;;;20.73;12.57;;;;;;;0.04;97.49;99969.09;6190842;23;20013;-73
2020/12/09 00:47:01;;;;;;;19.17;11.77;;;;;;;0.06;97.44;99972.44;6190849;23;20056;-73
2020/12/09 00:49:27;;;;;;;20.48;12.05;;;;;;;0.07;97.68;99971.34;6191281;23;20013;-73
2020/12/09 00:51:52;;;;;;;16.77;11.20;;;;;;;0.08;97.61;99964.81;6139749;23;20443;-73
2020/12/09 00:54:18;;;;;;;21.83;12.05;;;;;;;0.10;97.46;99962.69;6190423;23;20012;-73
2020/12/09 00:56:44;;;;;;;19.17;12.05;;;;;;;0.10;97.43;99962.69;6140224;23;20410;-73
2020/12/09 00:59:10;;;;;;;18.70;11.52;;;;;;;0.11;97.50;99958.91;6164278;23;20013;-73
2020/12/09 01:01:35;;;;;;;19.88;12.15;;;;;;;0.12;97.64;99959.72;6139903;23;20012;-73
2020/12/09 01:04:01;;;;;;;18.70;11.85;;;;;;;0.12;97.51;99970.66;6140035;23;20419;-73
2020/12/09 01:06:27;;;;;;;17.33;10.40;;;;;;;0.12;97.41;99963.28;6164477;23;20020;-73
2020/12/09 01:08:52;;;;;;;17.10;10.90;;;;;;;0.14;97.50;99973.94;6163944;23;20032;-73
2020/12/09 01:11:21;;;;;;;17.88;10.88;;;;;;;0.12;97.38;99970.66;6164353;23;20067;-73
2020/12/09 01:13:46;;;;;;;14.85;10.02;;;;;;;0.14;97.60;99969.34;6190564;23;20005;-73
2020/12/09 01:16:15;;;;;;;18.83;10.55;;;;;;;0.17;97.58;99976.22;6164540;23;20012;-73
2020/12/09 01:18:41;;;;;;;17.95;10.82;;;;;;;0.17;97.60;99974.31;6190658;23;20009;-73
2020/12/09 01:21:07;;;;;;;15.93;10.10;;;;;;;0.18;97.65;99967.78;6164045;23;20005;-73
2020/12/09 01:23:32;;;;;;;21.00;10.48;;;;;;;0.18;97.62;99966.94;6140123;23;20032;-73
2020/12/09 01:25:57;;;;;;;16.38;10.93;;;;;;;0.20;97.78;99968.38;6145998;23;20332;-73
2020/12/09 01:28:23;;;;;;;14.90;9.60;;;;;;;0.24;97.53;99973.34;6131384;23;20450;-73
2020/12/09 01:30:48;;;;;;;15.82;9.77;;;;;;;0.25;97.54;99958.63;6129117;23;20002;-73
2020/12/09 01:33:14;;;;;;;16.10;10.30;;;;;;;0.25;97.57;99958.63;6105642;23;20458;-73
2020/12/09 01:35:40;;;;;;;16.05;10.05;;;;;;;0.26;97.69;99961.13;6131321;23;20009;-73
2020/12/09 01:38:05;;;;;;;15.43;9.10;;;;;;;0.27;97.59;99951.84;6131509;23;20017;-73
2020/12/09 01:40:31;;;;;;;13.48;9.32;;;;;;;0.28;97.56;99958.13;6130929;23;20002;-73
2020/12/09 01:42:56;;;;;;;17.35;10.18;;;;;;;0.27;97.73;99957.31;6131549;23;20010;-73
2020/12/09 01:45:22;;;;;;;15.73;9.43;;;;;;;0.29;97.60;99960.66;6105301;23;20010;-73
2020/12/09 01:47:47;;;;;;;13.80;9.00;;;;;;;0.29;97.60;99954.34;6129796;23;20021;-73
2020/12/09 01:50:13;;;;;;;15.75;9.65;;;;;;;0.29;97.58;99949.72;6105027;23;20335;-73
2020/12/09 01:52:39;;;;;;;12.95;9.05;;;;;;;0.29;97.64;99946.16;6131448;23;20077;-73
2020/12/09 01:55:05;;;;;;;14.23;9.18;;;;;;;0.30;97.48;99945.91;6130981;23;20081;-73
2020/12/09 01:57:31;;;;;;;12.70;8.70;;;;;;;0.31;97.72;99949.50;6105368;23;20009;-73
2020/12/09 01:59:56;;;;;;;14.25;8.77;;;;;;;0.32;97.52;99953.88;6130991;23;20010;-73
2020/12/09 02:02:22;;;;;;;14.07;8.90;;;;;;;0.33;97.70;99955.53;6129742;23;20025;-73
2020/12/09 02:04:47;;;;;;;14.88;9.02;;;;;;;0.34;97.61;99962.66;6131012;23;20014;-73
2020/12/09 02:07:13;;;;;;;15.45;8.40;;;;;;;0.34;97.80;99970.88;6105154;23;20010;-73
2020/12/09 02:09:38;;;;;;;13.60;8.30;;;;;;;0.35;97.85;99975.25;6130462;23;20010;-73
2020/12/09 02:12:04;;;;;;;14.15;8.60;;;;;;;0.37;97.47;99981.31;6129453;23;20431;-74
2020/12/09 02:14:30;;;;;;;13.68;8.55;;;;;;;0.37;97.68;99979.41;6105178;23;20006;-73
2020/12/09 02:16:57;;;;;;;12.60;8.27;;;;;;;0.38;97.72;99980.22;6130871;23;20006;-74
2020/12/09 02:19:23;;;;;;;13.80;8.10;;;;;;;0.39;97.62;99976.41;6129179;23;20078;-73
2020/12/09 02:21:49;;;;;;;12.77;8.07;;;;;;;0.40;97.64;99984.38;6105361;23;20010;-73
2020/12/09 02:24:15;;;;;;;12.57;7.95;;;;;;;0.41;97.73;99990.66;6104769;23;20450;-73
2020/12/09 02:26:45;;;;;;;13.52;7.85;;;;;;;0.42;97.71;99992.34;6174213;23;20339;-73
2020/12/09 02:29:11;;;;;;;12.50;7.93;;;;;;;0.42;97.67;100004.09;6189937;23;20013;-72
2020/12/09 02:31:36;;;;;;;11.50;7.45;;;;;;;0.44;97.73;99999.22;6189584;23;20009;-73
2020/12/09 02:34:02;;;;;;;15.82;7.78;;;;;;;0.45;97.71;100002.78;6190142;23;20015;-73
2020/12/09 02:36:28;;;;;;;11.82;7.65;;;;;;;0.45;97.66;100000.06;6163406;23;20009;-73
2020/12/09 02:38:53;;;;;;;12.27;7.22;;;;;;;0.47;97.91;100005.28;6138720;23;20009;-73
2020/12/09 02:41:19;;;;;;;13.32;8.02;;;;;;;0.47;97.83;99995.16;6139604;23;20028;-73
2020/12/09 02:43:44;;;;;;;10.43;7.63;;;;;;;0.48;98.02;100001.50;6164064;23;20005;-73
2020/12/09 02:46:10;;;;;;;10.70;6.85;;;;;;;0.50;98.01;99997.41;6163349;23;20008;-73
2020/12/09 02:48:35;;;;;;;12.05;7.40;;;;;;;0.52;97.93;99997.19;6163484;23;20009;-73
2020/12/09 02:51:01;;;;;;;12.30;8.00;;;;;;;0.52;97.66;99986.25;6189661;23;20013;-74
2020/12/09 02:53:26;;;;;;;10.35;7.22;;;;;;;0.52;97.98;99981.63;6163970;23;20008;-73
2020/12/09 02:55:52;;;;;;;11.13;7.47;;;;;;;0.53;98.03;99982.44;6163122;23;20334;-73
2020/12/09 02:58:17;;;;;;;9.85;7.22;;;;;;;0.54;97.93;99984.94;6138750;23;20338;-73
2020/12/09 03:00:43;;;;;;;10.88;7.07;;;;;;;0.55;98.03;99989.34;6189826;23;20001;-73
2020/12/09 03:03:09;;;;;;;11.13;6.88;;;;;;;0.55;98.31;99991.25;6189972;23;20068;-73
2020/12/09 03:05:34;;;;;;;11.45;7.20;;;;;;;0.56;98.02;99993.75;6114188;23;20426;-74
2020/12/09 03:08:00;;;;;;;11.23;6.63;;;;;;;0.57;98.03;99983.63;6163293;23;20009;-74
2020/12/09 03:10:25;;;;;;;9.63;6.65;;;;;;;0.59;98.04;99989.69;6138860;23;20013;-74
2020/12/09 03:12:51;;;;;;;8.48;6.43;;;;;;;0.59;98.01;99993.25;6163738;23;20009;-74
2020/12/09 03:15:16;;;;;;;10.07;6.53;;;;;;;0.60;97.97;99994.09;6189167;23;20020;-74
2020/12/09 03:17:42;;;;;;;10.27;6.38;;;;;;;0.62;98.04;99989.22;6163751;23;20449;-74
2020/12/09 03:20:07;;;;;;;9.88;6.65;;;;;;;0.61;98.09;99988.41;6138772;23;20012;-75
2020/12/09 03:22:33;;;;;;;10.02;6.38;;;;;;;0.63;98.17;99994.44;6163212;23;20009;-74
2020/12/09 03:24:58;;;;;;;9.57;6.35;;;;;;;0.65;98.19;99995.03;6161695;23;20005;-74
2020/12/09 03:27:24;;;;;;;8.73;6.25;;;;;;;0.66;98.10;99993.94;6163657;23;20009;-74
2020/12/09 03:29:49;;;;;;;10.70;6.90;;;;;;;0.68;98.26;99988.25;6163023;23;20456;-74
2020/12/09 03:32:15;;;;;;;8.98;6.63;;;;;;;0.70;98.26;99994.31;6163091;23;20036;-74
2020/12/09 03:34:40;;;;;;;11.02;6.40;;;;;;;0.71;98.04;99995.97;6189289;23;20009;-74
2020/12/09 03:37:06;;;;;;;8.57;6.18;;;;;;;0.72;98.16;99997.59;6163531;23;20009;-74
2020/12/09 03:39:31;;;;;;;9.00;5.78;;;;;;;0.74;98.11;99987.28;6138495;23;20059;-74
2020/12/09 03:41:57;;;;;;;9.15;6.32;;;;;;;0.75;98.16;99986.19;6138589;23;20017;-74
2020/12/09 03:44:22;;;;;;;10.30;5.97;;;;;;;0.76;98.17;99982.41;6189572;23;20013;-74
2020/12/09 03:46:48;;;;;;;9.82;6.07;;;;;;;0.77;98.28;99983.22;6163363;23;20012;-74
2020/12/09 03:49:14;;;;;;;11.40;5.93;;;;;;;0.76;98.16;99985.13;6188657;23;20005;-74
2020/12/09 03:51:39;;;;;;;9.50;6.05;;;;;;;0.77;98.08;99983.22;6163315;23;20016;-73
2020/12/09 03:54:05;;;;;;;10.55;5.63;;;;;;;0.75;98.04;99974.44;6138508;23;20016;-74
2020/12/09 03:56:30;;;;;;;9.35;5.72;;;;;;;0.75;97.98;99980.72;6189067;23;20055;-74
2020/12/09 03:58:56;;;;;;;7.80;5.47;;;;;;;0.74;98.02;99979.06;6163082;23;20016;-74
2020/12/09 04:01:21;;;;;;;8.50;5.28;;;;;;;0.72;97.90;99980.38;6163442;23;20449;-74
2020/12/09 04:03:47;;;;;;;9.85;5.30;;;;;;;0.71;97.77;99990.50;6138407;23;20096;-73
2020/12/09 04:06:12;;;;;;;9.48;5.57;;;;;;;0.69;97.63;99995.38;6138084;23;20009;-73
2020/12/09 04:08:38;;;;;;;7.32;5.25;;;;;;;0.67;97.69;99992.06;6163329;23;20427;-73
2020/12/09 04:11:04;;;;;;;9.23;5.20;;;;;;;0.63;97.69;99986.22;6188883;23;20009;-73
2020/12/09 04:13:29;;;;;;;8.30;5.05;;;;;;;0.61;97.64;99991.13;6189394;23;20080;-73
2020/12/09 04:15:55;;;;;;;9.02;5.55;;;;;;;0.60;97.64;99986.72;6189388;23;20020;-73
2020/12/09 04:18:20;;;;;;;7.80;5.05;;;;;;;0.57;97.64;99975.44;6163355;23;20013;-73
2020/12/09 04:20:46;;;;;;;7.22;5.00;;;;;;;0.58;97.56;99985.28;6187298;23;20006;-73
2020/12/09 04:23:11;;;;;;;7.88;4.93;;;;;;;0.55;97.63;99989.34;6162840;23;20032;-73
2020/12/09 04:25:37;;;;;;;8.00;5.85;;;;;;;0.54;97.62;99984.13;6188853;23;20091;-73
2020/12/09 04:28:02;;;;;;;9.45;5.40;;;;;;;0.52;97.71;99980.78;6189246;23;20016;-73
2020/12/09 04:30:28;;;;;;;9.32;5.45;;;;;;;0.51;97.69;99976.41;6188195;23;20011;-73
2020/12/09 04:32:53;;;;;;;9.30;5.50;;;;;;;0.52;97.65;99986.25;6162999;23;20020;-73
2020/12/09 04:35:19;;;;;;;8.15;5.28;;;;;;;0.48;97.62;99990.56;6189212;23;20009;-73
2020/12/09 04:37:45;;;;;;;10.30;5.30;;;;;;;0.48;97.74;100002.31;6164933;23;20013;-73
2020/12/09 04:40:11;;;;;;;7.45;5.13;;;;;;;0.47;97.76;99999.81;6190541;23;20012;-73
2020/12/09 04:42:36;;;;;;;8.98;5.43;;;;;;;0.46;97.70;99998.97;6165030;23;20005;-73
2020/12/09 04:45:02;;;;;;;9.07;5.47;;;;;;;0.46;97.90;100001.72;6140138;23;20009;-73
2020/12/09 04:47:29;;;;;;;8.05;5.00;;;;;;;0.47;97.88;99999.81;6115397;23;20346;-73
2020/12/09 04:50:14;;;;;;;9.52;4.80;;;;;;;0.47;97.94;99997.06;6191063;23;20088;-73
2020/12/09 04:53:01;;;;;;;8.45;5.00;;;;;;;0.47;97.98;99994.34;6190713;23;20044;-73
2020/12/09 04:55:26;;;;;;;8.35;5.10;;;;;;;0.47;97.96;99984.25;6190420;23;20312;-74
2020/12/09 04:58:09;;;;;;;8.90;4.82;;;;;;;0.47;98.04;99984.25;6115593;23;20032;-73
2020/12/09 05:00:35;;;;;;;6.90;4.93;;;;;;;0.48;98.28;99977.72;6164603;23;20005;-73
2020/12/09 05:03:27;;;;;;;7.25;5.05;;;;;;;0.50;98.06;99980.19;6116244;23;20008;-73
2020/12/09 05:05:52;;;;;;;8.88;4.95;;;;;;;0.49;97.99;99975.81;6160182;23;20035;-73
2020/12/09 05:08:19;;;;;;;9.00;4.95;;;;;;;0.51;98.07;99981.88;6190530;23;20013;-73
2020/12/09 05:10:49;;;;;;;7.78;5.10;;;;;;;0.50;98.08;99980.19;6140026;23;20092;-73
2020/12/09 05:13:23;;;;;;;7.93;4.78;;;;;;;0.51;98.08;99996.38;6164819;23;20080;-73
2020/12/09 05:15:56;;;;;;;6.32;4.53;;;;;;;0.51;98.13;99995.53;6190085;23;20009;-74
2020/12/09 05:18:36;;;;;;;7.07;4.95;;;;;;;0.52;98.11;99994.47;6164183;23;20001;-73
2020/12/09 05:21:23;;;;;;;7.85;4.30;;;;;;;0.51;98.08;99990.91;6190573;23;20445;-73
2020/12/09 05:23:52;;;;;;;7.90;4.78;;;;;;;0.51;98.15;99993.63;6141101;23;20500;-73
2020/12/09 05:26:19;;;;;;;8.82;4.80;;;;;;;0.52;98.19;99991.72;6164089;23;20017;-73
2020/12/09 05:28:45;;;;;;;7.75;4.57;;;;;;;0.52;98.08;99989.81;6164742;23;20004;-73
2020/12/09 05:31:23;;;;;;;5.88;4.20;;;;;;;0.51;97.87;100006.47;6189592;23;20431;-73
2020/12/09 05:33:48;;;;;;;8.60;4.57;;;;;;;0.51;97.88;100001.00;6190682;23;20016;-73
2020/12/09 05:36:14;;;;;;;7.80;4.28;;;;;;;0.50;97.96;100000.16;6164403;23;20012;-73
2020/12/09 05:38:40;;;;;;;7.18;4.55;;;;;;;0.48;97.91;99999.59;6190255;23;20009;-73
2020/12/09 05:41:10;;;;;;;7.43;4.65;;;;;;;0.50;97.82;99994.69;6189951;23;20005;-73
2020/12/09 05:43:35;;;;;;;6.70;4.07;;;;;;;0.48;97.96;99996.03;6190861;23;20039;-73
2020/12/09 05:46:09;;;;;;;7.32;4.53;;;;;;;0.47;97.91;99995.16;6139841;23;20009;-73
2020/12/09 05:48:34;;;;;;;7.85;4.65;;;;;;;0.47;97.59;99997.06;6189998;23;20005;-74
2020/12/09 05:51:01;;;;;;;6.03;4.32;;;;;;;0.47;97.86;100000.63;6139330;23;20013;-73
2020/12/09 05:53:33;;;;;;;7.30;4.50;;;;;;;0.47;97.87;100005.28;6190549;23;20032;-73
2020/12/09 05:56:11;;;;;;;6.47;4.35;;;;;;;0.46;97.95;100007.19;6163905;23;20013;-73
2020/12/09 05:58:41;;;;;;;6.22;4.53;;;;;;;0.45;97.74;100008.25;6190769;23;20009;-73
2020/12/09 06:01:22;;;;;;;9.18;4.60;;;;;;;0.45;98.02;100016.47;6190178;23;20426;-73
2020/12/09 06:03:56;;;;;;;8.25;4.47;;;;;;;0.44;97.92;100022.97;6164289;23;20008;-73
2020/12/09 06:06:26;;;;;;;9.02;4.53;;;;;;;0.45;97.98;100032.84;6163865;23;20005;-73
2020/12/09 06:08:56;;;;;;;8.10;4.50;;;;;;;0.44;97.92;100033.91;6190617;23;20013;-73
2020/12/09 06:11:26;;;;;;;7.72;3.97;;;;;;;0.46;98.11;100034.50;6190037;23;20005;-73
2020/12/09 06:13:52;;;;;;;6.35;4.03;;;;;;;0.45;97.90;100038.31;6164318;23;20079;-73
2020/12/09 06:16:18;;;;;;;7.55;4.47;;;;;;;0.47;98.20;100035.31;6138976;23;20084;-73
2020/12/09 06:18:45;;;;;;;8.52;4.25;;;;;;;0.47;98.16;100035.31;6164345;23;20015;-73
2020/12/09 06:21:11;;;;;;;6.55;4.28;;;;;;;0.46;98.02;100026.31;6163623;23;20001;-74
2020/12/09 06:23:36;;;;;;;6.80;4.25;;;;;;;0.48;98.14;100032.38;6190101;23;20012;-74
2020/12/09 06:26:03;;;;;;;7.75;4.25;;;;;;;0.50;98.26;100043.88;6189545;23;20028;-73
2020/12/09 06:28:30;;;;;;;9.40;4.45;;;;;;;0.50;98.23;100043.88;6190412;23;20517;-74
2020/12/09 06:30:57;;;;;;;8.40;4.57;;;;;;;0.51;98.19;100045.53;6163564;23;20032;-73
2020/12/09 06:33:37;;;;;;;7.00;4.75;;;;;;;0.52;98.30;100047.19;6189866;23;20013;-73
2020/12/09 06:36:16;;;;;;;8.90;4.80;;;;;;;0.53;98.35;100048.88;6163375;23;20012;-73
2020/12/09 06:39:04;;;;;;;7.05;4.45;;;;;;;0.54;98.33;100050.53;6164727;23;20438;-74
2020/12/09 06:41:32;;;;;;;8.93;4.85;;;;;;;0.54;98.39;100047.78;6189618;23;20005;-74
2020/12/09 06:44:12;;;;;;;10.48;4.40;;;;;;;0.54;98.45;100050.53;6139417;23;20439;-74
2020/12/09 06:46:41;;;;;;;9.32;4.90;;;;;;;0.56;98.40;100063.97;6138767;23;20048;-74
2020/12/09 06:49:29;;;;;;;8.25;4.40;;;;;;;0.56;98.29;100056.59;6163278;23;20009;-73
2020/12/09 06:51:56;;;;;;;10.38;4.68;;;;;;;0.56;98.25;100053.03;6189926;23;20016;-73
2020/12/09 06:54:22;;;;;;;13.30;4.70;;;;;;;0.57;98.44;100046.50;6189662;23;20001;-74
2020/12/09 06:57:26;;;;;;;11.55;5.00;;;;;;;0.58;98.65;100059.91;6139180;23;20449;-73
2020/12/09 07:00:18;;;;;;;10.77;4.93;;;;;;;0.59;98.55;100067.03;6138973;23;20402;-73
2020/12/09 07:02:45;;;;;;;8.85;4.72;;;;;;;0.62;98.52;100066.56;6164260;23;20009;-73
2020/12/09 07:05:11;;;;;;;8.27;4.93;;;;;;;0.62;98.54;100063.84;6163603;23;20017;-74
2020/12/09 07:07:43;;;;;;;14.65;5.28;;;;;;;0.63;98.46;100064.66;6163841;23;20020;-74
2020/12/09 07:10:29;;;;;;;13.05;5.03;;;;;;;0.63;98.56;100060.00;6189694;23;20009;-74
2020/12/09 07:13:00;;;;;;;8.30;4.60;;;;;;;0.65;98.44;100068.00;6163042;23;20009;-73
2020/12/09 07:15:26;;;;;;;12.05;4.82;;;;;;;0.65;98.42;100068.81;6163569;23;20461;-73
2020/12/09 07:17:53;;;;;;;13.00;4.80;;;;;;;0.66;98.29;100067.72;6163460;23;20032;-73
2020/12/09 07:20:18;;;;;;;7.95;4.75;;;;;;;0.66;98.42;100070.47;6163692;23;20009;-73
2020/12/09 07:22:44;;;;;;;9.27;4.97;;;;;;;0.68;98.48;100072.16;6189846;23;20043;-73
2020/12/09 07:25:09;;;;;;;9.90;5.03;;;;;;;0.68;98.51;100061.22;6162455;23;20040;-73
2020/12/09 07:27:37;;;;;;;20.15;5.45;;;;;;;0.69;98.67;100071.06;6189601;23;20434;-73
2020/12/09 07:30:10;;;;;;;10.23;4.70;;;;;;;0.69;98.60;100071.88;6163411;23;20020;-73
2020/12/09 07:32:35;;;;;;;11.98;4.57;;;;;;;0.71;98.52;100075.22;6189554;23;20464;-73
2020/12/09 07:35:03;;;;;;;6.95;4.68;;;;;;;0.72;98.57;100084.25;6189258;23;20009;-73
2020/12/09 07:37:32;;;;;;;12.88;4.75;;;;;;;0.73;98.57;100086.75;6138523;23;20339;-73
2020/12/09 07:40:01;;;;;;;9.00;4.88;;;;;;;0.75;98.51;100078.31;6189294;23;20085;-73
2020/12/09 07:42:26;;;;;;;6.00;4.00;;;;;;;0.75;98.61;100081.84;6139816;23;20048;-73
2020/12/09 07:44:52;;;;;;;12.15;4.53;;;;;;;0.76;98.56;100085.44;6138462;23;20009;-73
2020/12/09 07:47:36;;;;;;;8.45;4.60;;;;;;;0.76;98.40;100082.72;6189319;23;20009;-73
2020/12/09 07:50:04;;;;;;;11.20;5.22;;;;;;;0.76;98.32;100090.91;6162945;23;20005;-73
2020/12/09 07:52:40;;;;;;;7.93;4.38;;;;;;;0.75;98.29;100089.22;6189745;23;20009;-73
2020/12/09 07:55:13;;;;;;;8.77;4.35;;;;;;;0.74;98.38;100093.06;6162923;23;20063;-73
2020/12/09 07:57:39;;;;;;;6.18;3.78;;;;;;;0.73;97.88;100096.88;6164739;23;20320;-73
2020/12/09 08:00:12;;;;;;;8.23;4.10;;;;;;;0.72;98.14;100111.59;6138464;23;20009;-73
2020/12/09 08:02:39;;;;;;;5.68;3.80;;;;;;;0.71;98.14;100120.88;6139765;23;20051;-73
2020/12/09 08:05:26;;;;;;;11.05;4.25;;;;;;;0.71;98.06;100126.34;6189252;23;20068;-73
2020/12/09 08:07:56;;;;;;;8.82;3.90;;;;;;;0.69;98.21;100121.09;6163564;23;20087;-73
2020/12/09 08:10:43;;;;;;;9.25;4.32;;;;;;;0.70;98.22;100124.66;6162704;23;20373;-74
2020/12/09 08:13:10;;;;;;;6.82;4.20;;;;;;;0.71;98.08;100132.63;6165664;23;20020;-73
2020/12/09 08:15:39;;;;;;;19.52;8.52;;;;;;;0.72;98.13;100133.44;6141293;23;20009;-74
2020/12/09 08:18:05;;;;;;;68.57;34.83;;;;;;;0.73;98.43;100135.97;6141656;23;20011;-73
2020/12/09 08:20:43;;;;;;;114.30;55.30;;;;;;;0.75;98.22;100141.16;6164519;23;20005;-74
2020/12/09 08:23:08;;;;;;;145.90;68.25;;;;;;;0.76;98.55;100129.19;6140397;23;20016;-73
2020/12/09 08:25:34;;;;;;;151.13;70.15;;;;;;;0.79;98.49;100134.16;6190194;23;20021;-73
2020/12/09 08:28:05;;;;;;;156.13;74.93;;;;;;;0.81;98.43;100132.03;6140614;23;20013;-73
2020/12/09 08:30:31;;;;;;;155.82;71.43;;;;;;;0.84;98.63;100131.56;6139051;23;20005;-74
2020/12/09 08:33:02;;;;;;;141.13;66.10;;;;;;;0.86;98.71;100121.19;6091801;23;20032;-73
2020/12/09 08:36:06;;;;;;;134.00;64.03;;;;;;;0.91;98.78;100120.47;6164488;23;20063;-73
2020/12/09 08:38:38;;;;;;;125.25;57.65;;;;;;;0.93;98.61;100113.72;6144785;23;20008;-74
2020/12/09 08:41:05;;;;;;;108.97;48.35;;;;;;;0.94;98.68;100107.16;6190953;23;20012;-74
2020/12/09 08:43:34;;;;;;;107.35;45.45;;;;;;;0.96;98.57;100113.22;6164946;23;20081;-73
2020/12/09 08:45:59;;;;;;;81.25;38.88;;;;;;;0.98;98.47;100110.25;6164702;23;20315;-73
2020/12/09 08:48:25;;;;;;;76.00;34.20;;;;;;;0.98;98.43;100111.09;6140002;23;20131;-74
2020/12/09 08:50:51;;;;;;;63.35;28.60;;;;;;;0.99;98.33;100111.91;6191102;23;20013;-73
2020/12/09 08:53:17;;;;;;;63.92;25.90;;;;;;;1.01;98.14;100113.34;6164703;23;20496;-73
2020/12/09 08:55:43;;;;;;;51.00;24.55;;;;;;;1.03;98.10;100113.09;6164449;23;20008;-74
2020/12/09 08:58:11;;;;;;;44.70;19.10;;;;;;;1.08;98.15;100107.72;6190941;23;20008;-74
2020/12/09 09:00:39;;;;;;;31.77;14.20;;;;;;;1.15;98.17;100108.44;6165070;23;20369;-73
2020/12/09 09:03:11;;;;;;;27.27;11.98;;;;;;;1.23;98.08;100112.69;6116311;23;20081;-73
2020/12/09 09:05:38;;;;;;;24.58;10.68;;;;;;;1.33;98.39;100115.63;6190644;23;20059;-73
2020/12/09 09:08:04;;;;;;;19.23;8.82;;;;;;;1.42;98.65;100119.66;6164320;23;20061;-74
2020/12/09 09:10:29;;;;;;;20.02;7.95;;;;;;;1.53;98.67;100110.56;6139869;23;20419;-74
2020/12/09 09:12:55;;;;;;;17.67;6.88;;;;;;;1.63;99.17;100114.56;6164779;23;20005;-73
2020/12/09 09:15:20;;;;;;;13.73;6.05;;;;;;;1.70;98.59;100120.72;6139727;23;20009;-73
2020/12/09 09:17:46;;;;;;;12.52;6.22;;;;;;;1.79;98.65;100117.34;6190753;23;20009;-73
2020/12/09 09:20:11;;;;;;;14.85;5.40;;;;;;;1.89;98.83;100122.16;6139916;23;20005;-73
2020/12/09 09:22:37;;;;;;;18.75;5.45;;;;;;;1.98;98.79;100120.69;6190164;23;20005;-73
2020/12/09 09:25:04;;;;;;;10.98;5.00;;;;;;;2.06;99.14;100115.88;6163797;23;20127;-73
2020/12/09 09:27:29;;;;;;;13.50;4.90;;;;;;;2.16;99.67;100121.53;6140294;23;20520;-73
2020/12/09 09:29:56;;;;;;;10.98;4.95;;;;;;;2.24;99.44;100121.13;6164009;23;20035;-73
2020/12/09 09:32:22;;;;;;;9.65;4.80;;;;;;;2.32;99.25;100125.38;6139983;23;20005;-73
2020/12/09 09:34:48;;;;;;;9.35;4.95;;;;;;;2.38;99.39;100125.19;6190403;23;20067;-73
2020/12/09 09:37:14;;;;;;;11.85;4.72;;;;;;;2.44;99.22;100117.91;6164112;23;20012;-73
2020/12/09 09:39:39;;;;;;;13.95;4.80;;;;;;;2.52;99.02;100124.88;6164173;23;20009;-73
2020/12/09 09:42:05;;;;;;;11.27;5.40;;;;;;;2.58;99.40;100121.13;6164569;23;20429;-73
2020/12/09 09:44:31;;;;;;;13.95;5.45;;;;;;;2.63;99.73;100116.53;6190175;23;20492;-73
2020/12/09 09:46:57;;;;;;;10.88;5.15;;;;;;;2.68;99.61;100121.28;6164128;23;20009;-73
2020/12/09 09:49:23;;;;;;;9.20;4.78;;;;;;;2.72;99.36;100119.69;6190298;23;20016;-73
2020/12/09 09:51:50;;;;;;;13.75;5.40;;;;;;;2.78;99.74;100120.59;6190798;23;20013;-73
2020/12/09 09:54:16;;;;;;;13.38;5.13;;;;;;;2.81;99.39;100118.16;6188971;23;20084;-73
2020/12/09 09:56:42;;;;;;;12.82;5.28;;;;;;;2.85;99.32;100116.59;6163566;23;20009;-73
2020/12/09 09:59:07;;;;;;;16.08;4.93;;;;;;;2.90;99.33;100113.09;6190624;23;20012;-73
2020/12/09 10:01:33;;;;;;;13.82;5.35;;;;;;;2.94;98.97;100117.00;6190746;23;20485;-73
2020/12/09 10:03:58;;;;;;;10.43;4.55;;;;;;;2.96;98.75;100122.22;6138777;23;20083;-73
2020/12/09 10:06:25;;;;;;;14.32;5.38;;;;;;;2.99;98.78;100119.81;6163929;23;20514;-73
2020/12/09 10:08:51;;;;;;;11.88;5.40;;;;;;;3.04;98.80;100130.84;6190671;23;20422;-73
2020/12/09 10:11:16;;;;;;;10.95;4.78;;;;;;;3.07;98.94;100135.00;6190108;23;20083;-73
2020/12/09 10:13:42;;;;;;;11.52;5.57;;;;;;;3.11;99.11;100123.25;6163874;23;20009;-73
2020/12/09 10:16:07;;;;;;;14.18;5.28;;;;;;;3.14;99.35;100122.72;6163744;23;20452;-73
2020/12/09 10:18:33;;;;;;;12.35;5.63;;;;;;;3.18;99.04;100112.09;6139584;23;20064;-73
2020/12/09 10:20:58;;;;;;;14.25;5.25;;;;;;;3.23;99.00;100120.41;6189451;23;20012;-73
2020/12/09 10:23:24;;;;;;;11.20;4.97;;;;;;;3.26;98.86;100121.78;6190023;23;20024;-73
2020/12/09 10:25:50;;;;;;;10.85;5.28;;;;;;;3.30;98.70;100120.19;6148053;23;20048;-74
2020/12/09 10:28:15;;;;;;;10.32;4.45;;;;;;;3.34;98.65;100121.34;6131032;23;20347;-73
2020/12/09 10:30:45;;;;;;;12.00;4.45;;;;;;;3.37;98.33;100115.34;6128710;23;20006;-73
2020/12/09 10:33:12;;;;;;;9.32;4.50;;;;;;;3.41;97.92;100119.25;6128740;23;20009;-74
2020/12/09 10:35:38;;;;;;;11.32;4.07;;;;;;;3.44;97.10;100115.97;6128921;23;20002;-72
2020/12/09 10:38:05;;;;;;;14.10;5.45;;;;;;;3.48;96.97;100116.28;6129265;23;20081;-73
2020/12/09 10:40:31;;;;;;;13.27;6.13;;;;;;;3.53;97.28;100106.19;6105007;23;20364;-74
2020/12/09 10:42:56;;;;;;;14.00;6.80;;;;;;;3.57;97.34;100104.59;6130737;23;20064;-73
2020/12/09 10:45:22;;;;;;;12.30;6.45;;;;;;;3.61;97.03;100104.09;6129046;23;20074;-74
2020/12/09 10:47:47;;;;;;;14.93;6.63;;;;;;;3.63;96.67;100102.75;6129694;23;20447;-73
2020/12/09 10:50:13;;;;;;;16.38;7.68;;;;;;;3.65;96.10;100100.56;6130550;23;20014;-74
2020/12/09 10:52:39;;;;;;;15.10;7.22;;;;;;;3.69;96.07;100106.38;6130529;23;20006;-73
2020/12/09 10:55:04;;;;;;;14.60;6.80;;;;;;;3.71;95.97;100099.53;6128784;23;20005;-73
2020/12/09 10:57:30;;;;;;;16.33;7.90;;;;;;;3.74;95.66;100092.69;6130766;23;20018;-73
2020/12/09 10:59:56;;;;;;;15.73;7.10;;;;;;;3.76;95.23;100098.75;6129541;23;20002;-73
2020/12/09 11:02:21;;;;;;;15.40;7.43;;;;;;;3.78;95.15;100097.41;6128934;23;20010;-73
2020/12/09 11:04:47;;;;;;;15.20;7.65;;;;;;;3.80;95.09;100089.72;6128931;23;20010;-73
2020/12/09 11:07:12;;;;;;;20.30;7.85;;;;;;;3.81;94.70;100080.41;6104824;23;20001;-74
2020/12/09 11:09:39;;;;;;;14.90;7.18;;;;;;;3.85;95.06;100085.41;6129220;23;20044;-73
2020/12/09 11:12:05;;;;;;;14.05;6.70;;;;;;;3.87;95.10;100085.94;6130498;23;20085;-73
2020/12/09 11:14:33;;;;;;;14.02;6.50;;;;;;;3.88;95.93;100091.19;6104611;23;20009;-73
2020/12/09 11:17:00;;;;;;;15.52;6.78;;;;;;;3.90;95.25;100094.50;6129192;23;20117;-74
2020/12/09 11:19:25;;;;;;;17.17;7.05;;;;;;;3.93;96.00;100084.94;6104999;23;20033;-73
2020/12/09 11:21:51;;;;;;;14.80;6.60;;;;;;;3.96;95.96;100081.66;6153509;23;20006;-73
2020/12/09 11:24:17;;;;;;;19.25;6.70;;;;;;;3.97;96.13;100083.31;6128178;23;20013;-73
2020/12/09 11:26:43;;;;;;;19.88;7.75;;;;;;;3.98;96.34;100087.69;6128933;23;20339;-73
2020/12/09 11:29:08;;;;;;;20.77;8.10;;;;;;;4.00;96.40;100088.28;6129476;23;20021;-73
2020/12/09 11:31:38;;;;;;;14.95;6.57;;;;;;;4.02;96.79;100077.84;6129577;23;20049;-73